AU-0074 weather

Longford Heliport
Bass Straight Oil and Gas industry, Victoria, Australia

Public forecast

Using degrees Celsius for public forecast. Weather courtesy of forecast.io.

Closest aviation weather report (METAR) to Longford Heliport

Closest report is Melbourne Essendon Airport, 111.3 nm (206.1 km) WNW. Retrieved 2020/01/28 09:00 UTC (37 minutes ago):

YMEN 280900Z AUTO 19013KT 9999 // NCD 19/15 Q1016

Closest aviation forecast (TAF) to Longford Heliport

Forecast is more than 6 hours old.

Closest forecast is Melbourne International Airport, 114.9 nm (212.8 km) WNW. Retrieved 2020-01-28 00:37 UTC (9 hours ago):

TAF YMML 272308Z 2800/2906 19008KT 9999 SCT020 FM280100 19012KT CAVOK FM281000 20008KT 9999 FEW010 FM281300 12003KT 9999 SCT010 FM281700 36005KT 9999 FEW010 SCT020 BECMG 2820/2822 VRB03KT CAVOK